Time;durP1;ratioP1;P1;durP2;ratioP2;P2;SDS_P1;SDS_P2;PMS_P1;PMS_P2;Temp;Humidity;BMP_temperature;BMP_pressure;BME280_temperature;BME280_humidity;BME280_pressure;Samples;Min_cycle;Max_cycle;Signal;HPM_P1;HPM_P2
2023/03/15 00:01:05;;;;;;;13.47;7.37;;;2.70;99.90;;;;;;5042009;28;20246;-73
2023/03/15 00:03:36;;;;;;;12.67;6.90;;;2.60;99.90;;;;;;5042255;28;20227;-73
2023/03/15 00:06:03;;;;;;;13.93;7.73;;;2.70;99.90;;;;;;5044902;28;20250;-74
2023/03/15 00:08:34;;;;;;;15.03;7.47;;;2.60;99.90;;;;;;5043087;28;20292;-73
2023/03/15 00:11:01;;;;;;;15.23;8.10;;;2.60;99.90;;;;;;5040968;28;20796;-74
2023/03/15 00:13:28;;;;;;;13.17;7.87;;;2.70;99.90;;;;;;5045252;28;20313;-73
2023/03/15 00:15:58;;;;;;;19.60;8.17;;;2.70;99.90;;;;;;5043005;28;20315;-74
2023/03/15 00:18:26;;;;;;;18.30;8.03;;;2.70;99.90;;;;;;5044021;28;20250;-73
2023/03/15 00:20:53;;;;;;;16.00;7.93;;;2.70;99.90;;;;;;5042958;28;20623;-73
2023/03/15 00:23:19;;;;;;;17.80;7.90;;;2.70;99.90;;;;;;5026519;28;20209;-74
2023/03/15 00:25:48;;;;;;;14.27;7.23;;;2.70;99.90;;;;;;5043312;28;20325;-73
2023/03/15 00:28:15;;;;;;;12.73;7.53;;;2.70;99.90;;;;;;5045668;28;20235;-74
2023/03/15 00:30:42;;;;;;;16.47;8.03;;;2.70;99.90;;;;;;5044537;28;20513;-73
2023/03/15 00:33:13;;;;;;;9.83;6.57;;;2.70;99.90;;;;;;5045587;28;20568;-72
2023/03/15 00:35:42;;;;;;;12.03;6.57;;;2.70;99.90;;;;;;5044103;28;20645;-72
2023/03/15 00:38:09;;;;;;;10.50;6.33;;;2.60;99.90;;;;;;5043334;28;20284;-73
2023/03/15 00:40:36;;;;;;;11.90;6.07;;;2.60;99.90;;;;;;5043308;28;20202;-74
2023/03/15 00:43:04;;;;;;;14.03;6.70;;;2.60;99.90;;;;;;5044128;28;20196;-73
2023/03/15 00:45:31;;;;;;;13.00;6.10;;;2.60;99.90;;;;;;5044362;28;20267;-73
2023/03/15 00:47:58;;;;;;;10.50;6.23;;;2.50;99.90;;;;;;5048629;28;20250;-74
2023/03/15 00:50:25;;;;;;;8.43;6.30;;;2.50;99.90;;;;;;5041536;28;20216;-73
2023/03/15 00:52:51;;;;;;;11.90;7.53;;;2.50;99.90;;;;;;5026762;28;20260;-75
2023/03/15 00:55:20;;;;;;;13.00;6.57;;;2.50;99.90;;;;;;5047897;28;20203;-73
2023/03/15 00:57:47;;;;;;;11.30;6.37;;;2.50;99.90;;;;;;5044471;28;20202;-75
2023/03/15 01:00:19;;;;;;;11.93;6.63;;;2.50;99.90;;;;;;5040895;28;20218;-74
2023/03/15 01:02:46;;;;;;;11.30;6.13;;;2.50;99.90;;;;;;5041320;28;20258;-73
2023/03/15 01:05:13;;;;;;;10.07;6.07;;;2.50;99.90;;;;;;5042058;28;20746;-74
2023/03/15 01:07:40;;;;;;;11.63;6.13;;;2.50;99.90;;;;;;5040942;28;20299;-74
2023/03/15 01:10:07;;;;;;;11.07;5.73;;;2.50;99.90;;;;;;5036438;28;20635;-73
2023/03/15 01:12:34;;;;;;;11.70;6.00;;;2.50;99.90;;;;;;5052145;28;20206;-73
2023/03/15 01:15:02;;;;;;;10.80;5.53;;;2.50;99.90;;;;;;5039061;28;20210;-72
2023/03/15 01:17:29;;;;;;;14.60;6.50;;;2.50;99.90;;;;;;5043759;28;20265;-74
2023/03/15 01:19:59;;;;;;;11.77;6.57;;;2.50;99.90;;;;;;5041516;28;20215;-72
2023/03/15 01:22:26;;;;;;;11.90;6.73;;;2.50;99.90;;;;;;5043814;28;20206;-74
2023/03/15 01:24:53;;;;;;;13.17;6.90;;;2.50;99.90;;;;;;5041334;28;20212;-72
2023/03/15 01:27:19;;;;;;;13.43;6.90;;;2.50;99.90;;;;;;5044740;28;20676;-74
2023/03/15 01:29:46;;;;;;;14.77;7.30;;;2.50;99.90;;;;;;5041939;28;20535;-74
2023/03/15 01:32:13;;;;;;;14.13;7.30;;;2.40;99.90;;;;;;5042102;28;20247;-73
2023/03/15 01:34:42;;;;;;;12.30;6.80;;;2.40;99.90;;;;;;5043531;28;20672;-74
2023/03/15 01:37:13;;;;;;;11.97;7.00;;;2.30;99.90;;;;;;5042285;28;20209;-72
2023/03/15 01:39:40;;;;;;;12.50;6.73;;;2.30;99.90;;;;;;5042666;28;20256;-75
2023/03/15 01:42:08;;;;;;;13.60;6.63;;;2.30;99.90;;;;;;5042068;28;20213;-74
2023/03/15 01:44:54;;;;;;;13.70;6.60;;;2.20;99.90;;;;;;5043864;28;20671;-73
2023/03/15 01:47:24;;;;;;;13.10;5.90;;;2.20;99.90;;;;;;5040201;28;20224;-73
2023/03/15 01:50:02;;;;;;;14.83;6.17;;;2.10;99.90;;;;;;5029655;28;20277;-73
2023/03/15 01:52:34;;;;;;;12.17;5.93;;;2.10;99.90;;;;;;5023469;28;20198;-74
2023/03/15 01:55:10;;;;;;;10.07;5.80;;;2.00;99.90;;;;;;5046783;28;20651;-73
2023/03/15 01:57:50;;;;;;;9.43;5.53;;;2.00;99.90;;;;;;5043888;28;20217;-74
2023/03/15 02:00:19;;;;;;;10.40;5.30;;;2.00;99.90;;;;;;5043637;28;20293;-74
2023/03/15 02:02:53;;;;;;;10.60;5.90;;;1.90;99.90;;;;;;5040151;28;20284;-74
2023/03/15 02:05:27;;;;;;;7.73;4.57;;;1.90;99.90;;;;;;5042255;28;20807;-74
2023/03/15 02:07:54;;;;;;;9.50;4.87;;;1.90;99.90;;;;;;5029316;28;20609;-73
2023/03/15 02:10:34;;;;;;;10.03;4.97;;;1.90;99.90;;;;;;5041105;28;20674;-72
2023/03/15 02:13:01;;;;;;;9.30;4.70;;;1.90;99.90;;;;;;5042435;28;20203;-73
2023/03/15 02:15:28;;;;;;;13.37;5.07;;;1.80;99.90;;;;;;5042181;28;20309;-72
2023/03/15 02:17:54;;;;;;;11.50;5.33;;;1.80;99.90;;;;;;5040779;28;20260;-72
2023/03/15 02:20:37;;;;;;;10.23;5.03;;;1.90;99.90;;;;;;5041240;28;20227;-72
2023/03/15 02:23:11;;;;;;;9.20;5.10;;;1.80;99.90;;;;;;5040810;28;20224;-73
2023/03/15 02:25:56;;;;;;;10.20;5.67;;;1.80;99.90;;;;;;5042789;28;20624;-74
2023/03/15 02:28:23;;;;;;;10.40;4.93;;;1.80;99.90;;;;;;5025425;28;20724;-73
2023/03/15 02:30:50;;;;;;;10.77;4.70;;;1.80;99.90;;;;;;5046919;28;20236;-72
2023/03/15 02:33:27;;;;;;;11.37;4.47;;;1.80;99.90;;;;;;5041614;28;20322;-73
2023/03/15 02:35:55;;;;;;;12.90;4.87;;;1.80;99.90;;;;;;5042240;28;20256;-73
2023/03/15 02:38:22;;;;;;;15.67;5.90;;;1.80;99.90;;;;;;5021655;28;20207;-74
2023/03/15 02:40:51;;;;;;;20.00;5.70;;;1.80;99.90;;;;;;5042382;28;20708;-73
2023/03/15 02:43:23;;;;;;;12.13;5.73;;;1.80;99.90;;;;;;5041155;28;20233;-74
2023/03/15 02:45:50;;;;;;;11.60;5.83;;;1.80;99.90;;;;;;5039495;28;20230;-73
2023/03/15 02:48:17;;;;;;;13.90;6.47;;;1.90;99.90;;;;;;5042386;28;20260;-73
2023/03/15 02:50:44;;;;;;;14.07;6.20;;;1.90;99.90;;;;;;5039959;28;20215;-73
2023/03/15 02:53:12;;;;;;;15.93;6.93;;;1.90;99.90;;;;;;5042499;28;20193;-74
2023/03/15 02:55:38;;;;;;;12.13;6.40;;;1.90;99.90;;;;;;5028059;28;20601;-73
2023/03/15 02:58:05;;;;;;;12.63;6.13;;;2.00;99.90;;;;;;5039663;28;20209;-74
2023/03/15 03:00:32;;;;;;;14.27;6.60;;;2.00;99.90;;;;;;5044955;28;20574;-74
2023/03/15 03:02:59;;;;;;;16.90;7.13;;;2.00;99.90;;;;;;5022992;28;20214;-73
2023/03/15 03:05:26;;;;;;;12.63;5.60;;;2.00;99.90;;;;;;5040306;28;20240;-72
2023/03/15 03:07:53;;;;;;;12.67;5.97;;;1.90;99.90;;;;;;5040476;28;20205;-73
2023/03/15 03:10:21;;;;;;;12.60;6.17;;;1.90;99.90;;;;;;5039952;28;20284;-73
2023/03/15 03:12:52;;;;;;;15.53;6.60;;;1.90;99.90;;;;;;5043565;28;20737;-73
2023/03/15 03:15:19;;;;;;;14.13;6.50;;;1.90;99.90;;;;;;5040010;28;20217;-74
2023/03/15 03:17:46;;;;;;;14.40;6.23;;;1.90;99.90;;;;;;5040155;28;20236;-73
2023/03/15 03:20:13;;;;;;;18.03;6.53;;;1.80;99.90;;;;;;5021880;28;20215;-73
2023/03/15 03:22:43;;;;;;;20.10;6.60;;;1.90;99.90;;;;;;5041179;28;20284;-73
2023/03/15 03:25:11;;;;;;;16.73;6.17;;;1.80;99.90;;;;;;5039629;28;20658;-74
2023/03/15 03:27:39;;;;;;;14.23;6.20;;;1.80;99.90;;;;;;5044928;28;20716;-74
2023/03/15 03:30:09;;;;;;;13.47;6.67;;;1.80;99.90;;;;;;5042669;28;20255;-72
2023/03/15 03:32:36;;;;;;;17.03;6.40;;;1.80;99.90;;;;;;5038982;28;20512;-74
2023/03/15 03:35:03;;;;;;;18.97;7.27;;;1.80;99.90;;;;;;5043353;28;20534;-73
2023/03/15 03:37:29;;;;;;;13.70;6.83;;;1.80;99.90;;;;;;5019819;28;20600;-73
2023/03/15 03:39:57;;;;;;;15.20;6.43;;;1.70;99.90;;;;;;5041617;28;20210;-75
2023/03/15 03:42:23;;;;;;;16.57;6.57;;;1.80;99.90;;;;;;5038453;28;20213;-73
2023/03/15 03:44:52;;;;;;;14.03;6.37;;;1.80;99.90;;;;;;5040393;28;20267;-74
2023/03/15 03:47:20;;;;;;;16.60;6.50;;;1.70;99.90;;;;;;5020281;28;20272;-74
2023/03/15 03:49:46;;;;;;;17.37;7.20;;;1.80;99.90;;;;;;5041872;28;20292;-74
2023/03/15 03:52:13;;;;;;;17.50;7.47;;;1.80;99.90;;;;;;5042027;28;20293;-74
2023/03/15 03:54:41;;;;;;;21.70;8.53;;;1.80;99.90;;;;;;5026784;28;20300;-75
2023/03/15 03:57:09;;;;;;;16.73;8.43;;;1.80;99.90;;;;;;5042168;28;20263;-73
2023/03/15 03:59:36;;;;;;;21.57;8.10;;;1.90;99.90;;;;;;5041533;28;20209;-74
2023/03/15 04:02:03;;;;;;;16.77;7.00;;;1.90;99.90;;;;;;5040259;28;20210;-73
2023/03/15 04:04:29;;;;;;;20.67;6.70;;;2.00;99.90;;;;;;5022074;28;20206;-73
2023/03/15 04:06:56;;;;;;;13.47;6.97;;;2.00;99.90;;;;;;5039480;28;20307;-72
2023/03/15 04:09:23;;;;;;;16.93;6.30;;;2.00;99.90;;;;;;5039808;28;20716;-74
2023/03/15 04:11:50;;;;;;;16.37;6.13;;;2.00;99.90;;;;;;5021496;28;20213;-72
2023/03/15 04:14:17;;;;;;;12.17;5.97;;;2.00;99.90;;;;;;5043893;28;20223;-73
2023/03/15 04:16:44;;;;;;;16.10;7.23;;;1.90;99.90;;;;;;5038975;28;20217;-74
2023/03/15 04:19:11;;;;;;;16.63;8.07;;;1.90;99.90;;;;;;5046130;28;20258;-74
2023/03/15 04:21:38;;;;;;;21.77;8.77;;;1.90;99.90;;;;;;5014746;28;20213;-75
2023/03/15 04:24:06;;;;;;;33.20;14.63;;;1.90;99.90;;;;;;5041923;28;20739;-73
2023/03/15 04:26:33;;;;;;;30.07;15.47;;;1.80;99.90;;;;;;5042432;28;20488;-73
2023/03/15 04:29:00;;;;;;;22.17;10.43;;;1.80;99.90;;;;;;5039411;28;20210;-74
2023/03/15 04:31:26;;;;;;;17.60;8.77;;;1.80;99.90;;;;;;5037623;28;20710;-73
2023/03/15 04:33:54;;;;;;;16.00;7.67;;;1.80;99.90;;;;;;5041122;28;20225;-73
2023/03/15 04:36:22;;;;;;;13.50;5.73;;;1.80;99.90;;;;;;5040734;28;20624;-73
2023/03/15 04:38:49;;;;;;;11.60;5.27;;;1.80;99.90;;;;;;5040318;28;20720;-74
2023/03/15 04:41:17;;;;;;;11.67;4.97;;;1.80;99.90;;;;;;5027990;28;20206;-73
2023/03/15 04:43:44;;;;;;;16.57;5.10;;;1.80;99.90;;;;;;5043752;28;20208;-74
2023/03/15 04:46:11;;;;;;;15.10;5.40;;;1.90;99.90;;;;;;5039009;28;20256;-74
2023/03/15 04:48:37;;;;;;;10.10;4.27;;;1.90;99.90;;;;;;5041365;28;20215;-74
2023/03/15 04:51:04;;;;;;;12.07;5.10;;;1.90;99.90;;;;;;5043724;28;20206;-74
2023/03/15 04:53:31;;;;;;;7.50;3.67;;;2.00;99.90;;;;;;5047221;28;20205;-75
2023/03/15 04:55:58;;;;;;;10.70;4.67;;;2.00;99.90;;;;;;5031686;28;20201;-74
2023/03/15 04:58:25;;;;;;;11.37;4.37;;;2.00;99.90;;;;;;5041853;28;20623;-73
2023/03/15 05:00:52;;;;;;;14.03;4.67;;;2.00;99.90;;;;;;5043754;28;20225;-73
2023/03/15 05:03:19;;;;;;;7.90;3.80;;;2.10;99.90;;;;;;5041582;28;20219;-74
2023/03/15 05:05:46;;;;;;;8.67;3.90;;;2.10;99.90;;;;;;5045648;28;20634;-75
2023/03/15 05:08:13;;;;;;;12.87;5.37;;;2.10;99.90;;;;;;5040613;28;20781;-74
2023/03/15 05:10:40;;;;;;;10.20;3.93;;;2.10;99.90;;;;;;5044551;28;20232;-73
2023/03/15 05:13:07;;;;;;;10.07;4.13;;;2.10;99.90;;;;;;5039334;28;20210;-75
2023/03/15 05:15:34;;;;;;;12.33;4.10;;;2.10;99.90;;;;;;5044256;28;20206;-74
2023/03/15 05:18:00;;;;;;;12.83;4.20;;;2.10;99.90;;;;;;5040987;28;20241;-75
2023/03/15 05:20:27;;;;;;;14.47;4.60;;;2.10;99.90;;;;;;5043512;28;20212;-73
2023/03/15 05:22:54;;;;;;;9.27;3.97;;;2.10;99.90;;;;;;5025643;28;20226;-74
2023/03/15 05:25:21;;;;;;;13.93;4.13;;;2.10;99.90;;;;;;5044060;28;20670;-73
2023/03/15 05:27:47;;;;;;;10.03;3.97;;;2.10;99.90;;;;;;5044127;28;20258;-74
2023/03/15 05:30:15;;;;;;;13.73;4.30;;;2.10;99.90;;;;;;5043530;28;20730;-73
2023/03/15 05:32:43;;;;;;;14.87;5.30;;;2.10;99.90;;;;;;5044412;28;20272;-73
2023/03/15 05:35:11;;;;;;;18.93;7.10;;;2.10;99.90;;;;;;5028741;28;20299;-73
2023/03/15 05:37:38;;;;;;;8.97;4.60;;;2.20;99.90;;;;;;5042087;28;20233;-72
2023/03/15 05:40:09;;;;;;;9.60;3.03;;;2.10;99.90;;;;;;5042968;28;20206;-72
2023/03/15 05:42:35;;;;;;;4.73;2.53;;;2.10;99.90;;;;;;5041815;28;20314;-73
2023/03/15 05:45:02;;;;;;;7.53;2.33;;;2.10;99.90;;;;;;5045174;28;20206;-73
2023/03/15 05:47:29;;;;;;;8.17;2.23;;;2.10;99.90;;;;;;5040734;28;20266;-74
2023/03/15 05:49:58;;;;;;;11.10;2.47;;;2.10;99.90;;;;;;5043443;28;20197;-73
2023/03/15 05:52:25;;;;;;;7.10;2.20;;;2.10;99.90;;;;;;5041079;28;20213;-72
2023/03/15 05:54:52;;;;;;;7.47;2.40;;;2.10;99.90;;;;;;5047056;28;20288;-72
2023/03/15 05:57:18;;;;;;;6.93;2.00;;;2.00;99.90;;;;;;5046349;28;20297;-73
2023/03/15 05:59:45;;;;;;;2.83;1.80;;;2.10;99.90;;;;;;5039446;28;20210;-75
2023/03/15 06:02:12;;;;;;;5.63;2.00;;;2.00;99.90;;;;;;5040756;28;20214;-72
2023/03/15 06:04:39;;;;;;;2.70;1.53;;;2.10;99.90;;;;;;5045979;28;20211;-72
2023/03/15 06:07:05;;;;;;;4.77;2.33;;;2.00;99.90;;;;;;5036792;28;20251;-74
2023/03/15 06:09:32;;;;;;;4.03;1.87;;;2.20;99.90;;;;;;5042255;28;20210;-73
2023/03/15 06:11:59;;;;;;;5.43;1.73;;;2.00;99.90;;;;;;5043275;28;20620;-72
2023/03/15 06:14:26;;;;;;;5.60;1.80;;;2.00;99.90;;;;;;5027927;28;20202;-73
2023/03/15 06:16:53;;;;;;;5.10;1.90;;;2.00;99.90;;;;;;5043185;28;20290;-73
2023/03/15 06:19:21;;;;;;;5.93;1.90;;;1.90;99.90;;;;;;5042481;28;20217;-73
2023/03/15 06:21:48;;;;;;;8.03;2.40;;;1.90;99.90;;;;;;5037493;28;20671;-74
2023/03/15 06:24:15;;;;;;;4.87;1.93;;;1.80;99.90;;;;;;5042231;28;20662;-72
2023/03/15 06:26:42;;;;;;;6.90;2.10;;;1.80;99.90;;;;;;5027206;28;20564;-72
2023/03/15 06:29:08;;;;;;;5.37;2.20;;;1.90;99.90;;;;;;5043017;28;20202;-76
2023/03/15 06:31:35;;;;;;;7.17;2.23;;;1.80;99.90;;;;;;5058824;28;20306;-73
2023/03/15 06:34:02;;;;;;;6.10;2.40;;;1.70;99.90;;;;;;5041784;28;20226;-73
2023/03/15 06:36:30;;;;;;;7.57;2.40;;;1.70;99.90;;;;;;5047059;28;20194;-73
2023/03/15 06:38:57;;;;;;;4.97;2.77;;;1.70;99.90;;;;;;5046576;28;20630;-74
2023/03/15 06:41:23;;;;;;;10.73;2.37;;;1.70;99.90;;;;;;5044277;28;20206;-73
2023/03/15 06:43:50;;;;;;;7.73;2.73;;;1.70;99.90;;;;;;5029810;28;20211;-74
2023/03/15 06:46:17;;;;;;;9.47;2.77;;;1.70;99.90;;;;;;5022277;28;20258;-75
2023/03/15 06:48:44;;;;;;;12.10;3.03;;;1.70;99.90;;;;;;5045395;28;20229;-74
2023/03/15 06:51:11;;;;;;;9.73;2.77;;;1.80;99.90;;;;;;5044331;28;20194;-75
2023/03/15 06:53:37;;;;;;;11.33;3.20;;;1.80;99.90;;;;;;5039628;28;20257;-75
2023/03/15 06:56:04;;;;;;;7.10;3.13;;;1.90;99.90;;;;;;5045448;28;20623;-74
2023/03/15 06:58:31;;;;;;;8.77;3.70;;;2.00;99.90;;;;;;5024432;28;20213;-75
2023/03/15 07:00:57;;;;;;;11.53;4.13;;;2.10;99.90;;;;;;5038035;28;20206;-74
2023/03/15 07:03:24;;;;;;;24.20;5.40;;;2.50;99.90;;;;;;5040505;28;20224;-77
2023/03/15 07:05:53;;;;;;;10.40;4.33;;;3.40;99.90;;;;;;5041464;28;20225;-74
2023/03/15 07:08:22;;;;;;;10.13;3.77;;;4.30;99.90;;;;;;5020239;28;20261;-74
2023/03/15 07:10:49;;;;;;;11.47;4.57;;;4.70;99.90;;;;;;5040883;28;20275;-74
2023/03/15 07:13:17;;;;;;;13.70;3.97;;;4.80;99.90;;;;;;5023185;28;20640;-75
2023/03/15 07:15:44;;;;;;;8.30;2.93;;;5.50;99.90;;;;;;5041442;28;20259;-75
2023/03/15 07:18:11;;;;;;;5.73;2.47;;;6.30;99.90;;;;;;5039000;28;20226;-76
2023/03/15 07:20:38;;;;;;;6.13;2.80;;;7.10;99.90;;;;;;5042479;28;20307;-74
2023/03/15 07:23:04;;;;;;;4.30;2.67;;;8.00;99.90;;;;;;5039038;28;20225;-74
2023/03/15 07:25:31;;;;;;;5.40;2.27;;;8.80;99.90;;;;;;5041430;28;20628;-76
2023/03/15 07:28:03;;;;;;;5.47;2.20;;;9.00;99.90;;;;;;5042375;28;20700;-75
2023/03/15 07:30:30;;;;;;;5.60;3.37;;;9.40;99.90;;;;;;5040195;28;20202;-76
2023/03/15 07:32:57;;;;;;;3.93;2.10;;;9.70;99.90;;;;;;5042242;28;20316;-75
2023/03/15 07:35:23;;;;;;;3.43;2.03;;;10.00;99.90;;;;;;5035423;28;20197;-76
2023/03/15 07:37:50;;;;;;;3.43;1.80;;;10.40;99.90;;;;;;5043476;28;20209;-76
2023/03/15 07:40:17;;;;;;;4.27;1.90;;;10.80;99.90;;;;;;5026956;28;20205;-75
2023/03/15 07:42:44;;;;;;;3.27;2.00;;;11.00;99.90;;;;;;5038819;28;20206;-75
2023/03/15 07:45:11;;;;;;;6.07;1.93;;;11.20;99.90;;;;;;5042379;28;20231;-75
2023/03/15 07:47:38;;;;;;;3.03;1.83;;;11.50;99.90;;;;;;5044167;28;20238;-75
2023/03/15 07:50:05;;;;;;;3.53;1.60;;;11.60;99.90;;;;;;5044060;28;20208;-73
2023/03/15 07:52:32;;;;;;;5.43;1.73;;;11.50;99.90;;;;;;5044325;28;20232;-74
2023/03/15 07:54:59;;;;;;;5.13;1.60;;;11.20;99.90;;;;;;5029262;28;20203;-75
2023/03/15 07:57:25;;;;;;;3.37;1.13;;;10.80;99.90;;;;;;5041373;28;20240;-74
2023/03/15 07:59:54;;;;;;;6.57;1.63;;;10.60;99.90;;;;;;5021962;28;20213;-74
2023/03/15 08:02:24;;;;;;;4.07;1.00;;;10.40;99.90;;;;;;5040688;28;20594;-74
2023/03/15 08:04:52;;;;;;;4.07;1.17;;;10.40;99.90;;;;;;5043073;28;20288;-76
2023/03/15 08:07:18;;;;;;;3.40;1.20;;;10.10;99.90;;;;;;5049610;28;20244;-73
2023/03/15 08:09:45;;;;;;;4.63;1.30;;;9.90;99.90;;;;;;5041566;28;20663;-74
2023/03/15 08:12:12;;;;;;;4.43;0.90;;;9.60;99.90;;;;;;5038872;28;20201;-73
2023/03/15 08:14:39;;;;;;;3.93;1.27;;;9.30;99.90;;;;;;5041879;28;20243;-74
2023/03/15 08:17:06;;;;;;;2.00;1.00;;;9.10;99.90;;;;;;5038234;28;20207;-74
2023/03/15 08:19:32;;;;;;;2.17;0.83;;;8.80;99.90;;;;;;5043987;28;20200;-73
2023/03/15 08:21:59;;;;;;;4.63;1.10;;;8.50;99.90;;;;;;5020756;28;20300;-74
2023/03/15 08:24:26;;;;;;;2.50;0.80;;;8.10;99.90;;;;;;5044944;28;20632;-72
2023/03/15 08:26:53;;;;;;;7.97;1.23;;;7.80;99.90;;;;;;5047447;28;20208;-72
2023/03/15 08:29:20;;;;;;;6.87;1.20;;;7.60;99.90;;;;;;5044316;28;20302;-74
2023/03/15 08:31:47;;;;;;;3.83;1.20;;;7.40;99.90;;;;;;5025719;28;20204;-74
2023/03/15 08:34:15;;;;;;;3.80;1.30;;;7.20;99.90;;;;;;5025777;28;20225;-73
2023/03/15 08:36:41;;;;;;;5.93;1.30;;;7.00;99.90;;;;;;5027780;28;20693;-73
2023/03/15 08:39:08;;;;;;;2.40;1.10;;;6.90;99.90;;;;;;5043644;28;20292;-73
2023/03/15 08:41:35;;;;;;;2.53;1.10;;;6.80;99.90;;;;;;5027362;28;20200;-73
2023/03/15 08:44:02;;;;;;;2.93;1.10;;;6.80;99.90;;;;;;5047029;28;20207;-74
2023/03/15 08:46:29;;;;;;;4.63;1.40;;;7.10;99.90;;;;;;5044186;28;20203;-73
2023/03/15 08:48:56;;;;;;;2.10;1.00;;;7.50;99.90;;;;;;5041258;28;20696;-75
2023/03/15 08:51:24;;;;;;;3.43;1.00;;;7.90;99.90;;;;;;5043889;28;20231;-74
2023/03/15 08:53:52;;;;;;;7.00;1.27;;;8.10;99.90;;;;;;5047201;28;20209;-73
2023/03/15 08:56:19;;;;;;;4.30;1.30;;;8.50;99.90;;;;;;5048599;28;20301;-74
2023/03/15 08:58:45;;;;;;;4.83;1.50;;;8.90;99.90;;;;;;5044540;28;20201;-74
2023/03/15 09:01:13;;;;;;;2.13;0.90;;;9.40;99.90;;;;;;5044996;28;20612;-74
2023/03/15 09:03:41;;;;;;;3.53;1.13;;;9.80;99.90;;;;;;5041293;28;20233;-73
2023/03/15 09:06:08;;;;;;;2.90;0.97;;;10.00;99.90;;;;;;5028616;28;20227;-77
2023/03/15 09:08:35;;;;;;;3.73;1.10;;;10.20;99.90;;;;;;5043935;28;20362;-73
2023/03/15 09:11:02;;;;;;;4.60;1.07;;;10.30;99.90;;;;;;5039953;28;20295;-74
2023/03/15 09:13:30;;;;;;;5.13;2.00;;;10.50;99.90;;;;;;5039718;28;20227;-75
2023/03/15 09:15:57;;;;;;;5.57;1.00;;;10.70;99.90;;;;;;5041207;28;20706;-73
2023/03/15 09:18:24;;;;;;;2.57;0.97;;;10.90;99.90;;;;;;5037974;28;20275;-75
2023/03/15 09:20:52;;;;;;;6.00;1.40;;;10.90;99.90;;;;;;5045045;28;20208;-74
2023/03/15 09:23:18;;;;;;;6.33;1.27;;;11.00;99.90;;;;;;5041268;28;20834;-73
2023/03/15 09:25:45;;;;;;;4.67;1.23;;;10.90;99.90;;;;;;5046236;28;20222;-74
2023/03/15 09:28:12;;;;;;;7.73;1.80;;;11.00;99.90;;;;;;5044745;28;20315;-73
2023/03/15 09:30:40;;;;;;;3.63;1.20;;;10.80;99.90;;;;;;5045898;28;20608;-73
2023/03/15 09:33:07;;;;;;;5.73;1.40;;;10.50;99.90;;;;;;5045442;28;20213;-74
2023/03/15 09:35:35;;;;;;;5.60;1.60;;;10.40;99.90;;;;;;5045934;28;20189;-74
2023/03/15 09:38:02;;;;;;;4.13;1.20;;;10.30;99.90;;;;;;5047781;28;20201;-75
2023/03/15 09:40:41;;;;;;;7.50;1.33;;;10.00;99.90;;;;;;5047235;28;20221;-75
2023/03/15 09:43:07;;;;;;;5.13;1.40;;;10.10;99.90;;;;;;5033612;28;20262;-74
2023/03/15 09:45:58;;;;;;;5.90;1.50;;;10.20;99.90;;;;;;5049580;28;20213;-74
2023/03/15 09:48:34;;;;;;;3.23;1.57;;;10.30;99.90;;;;;;5044592;28;20233;-74
2023/03/15 09:51:27;;;;;;;4.67;1.17;;;10.40;99.90;;;;;;5046360;28;20198;-73
2023/03/15 09:54:02;;;;;;;4.07;1.10;;;10.50;99.90;;;;;;5045528;28;20236;-74
2023/03/15 09:56:38;;;;;;;6.90;1.27;;;10.50;99.90;;;;;;5051084;28;20193;-73
2023/03/15 09:59:06;;;;;;;4.50;1.00;;;10.60;99.90;;;;;;5044062;28;20531;-74
2023/03/15 10:01:40;;;;;;;2.17;1.23;;;10.40;99.90;;;;;;5049979;28;20608;-74
2023/03/15 10:04:28;;;;;;;5.83;1.40;;;10.40;99.90;;;;;;5028482;28;20236;-75
2023/03/15 10:06:58;;;;;;;3.53;1.00;;;10.50;99.90;;;;;;5042495;28;20775;-75
2023/03/15 10:09:31;;;;;;;6.83;1.50;;;10.50;99.90;;;;;;5044499;28;20258;-75
2023/03/15 10:12:09;;;;;;;3.10;1.10;;;10.50;99.90;;;;;;5042781;28;20613;-74
2023/03/15 10:14:51;;;;;;;4.43;1.17;;;10.20;99.90;;;;;;5049948;28;21144;-74
2023/03/15 10:17:48;;;;;;;6.13;2.27;;;9.80;99.90;;;;;;5024953;28;20205;-74
2023/03/15 10:20:23;;;;;;;2.47;1.30;;;9.60;99.90;;;;;;5046455;28;20249;-74
2023/03/15 10:23:04;;;;;;;10.53;1.90;;;9.40;99.90;;;;;;5045577;28;20715;-74
2023/03/15 10:25:32;;;;;;;4.83;1.47;;;9.40;99.90;;;;;;5043737;28;20304;-75
2023/03/15 10:28:09;;;;;;;6.73;1.77;;;9.40;99.90;;;;;;5042380;28;20224;-75
2023/03/15 10:30:38;;;;;;;7.77;1.50;;;9.40;99.90;;;;;;5036916;28;20665;-74
2023/03/15 10:33:12;;;;;;;6.73;1.20;;;9.40;99.90;;;;;;5042533;28;20217;-74
2023/03/15 10:35:41;;;;;;;6.43;1.73;;;9.40;99.90;;;;;;5027656;28;20599;-74
2023/03/15 10:38:16;;;;;;;5.50;2.30;;;9.40;99.90;;;;;;5026901;28;20197;-74
2023/03/15 10:40:52;;;;;;;6.43;1.90;;;9.10;99.90;;;;;;5043543;28;20204;-75
2023/03/15 10:43:21;;;;;;;2.73;1.33;;;9.00;99.90;;;;;;5022803;28;20559;-74
2023/03/15 10:46:10;;;;;;;5.60;1.80;;;8.80;99.90;;;;;;5043076;28;20690;-73
2023/03/15 10:48:40;;;;;;;4.53;1.40;;;8.80;99.90;;;;;;5026189;28;20240;-74
2023/03/15 10:51:19;;;;;;;2.90;1.30;;;8.80;99.90;;;;;;5025989;28;20630;-74
2023/03/15 10:54:03;;;;;;;5.53;1.60;;;8.80;99.90;;;;;;5028014;28;20204;-74
2023/03/15 10:56:35;;;;;;;6.20;1.47;;;8.90;99.90;;;;;;5046068;28;20207;-75
2023/03/15 10:59:02;;;;;;;5.07;1.40;;;9.10;99.90;;;;;;5042900;28;20304;-74
2023/03/15 11:01:38;;;;;;;7.77;1.70;;;9.10;99.90;;;;;;5041186;28;20576;-75
2023/03/15 11:04:06;;;;;;;5.83;1.87;;;9.20;99.90;;;;;;5038037;28;20232;-75
2023/03/15 11:07:01;;;;;;;7.43;1.67;;;9.20;99.90;;;;;;5035193;28;20939;-74
2023/03/15 11:09:44;;;;;;;6.93;1.40;;;9.30;99.90;;;;;;5040170;28;20229;-75
2023/03/15 11:12:25;;;;;;;2.83;1.60;;;9.90;99.90;;;;;;5037151;28;20760;-75
2023/03/15 11:15:01;;;;;;;7.37;1.33;;;9.80;99.90;;;;;;5043880;28;20236;-75
2023/03/15 11:17:32;;;;;;;4.63;1.47;;;9.80;99.90;;;;;;5037236;28;20752;-73
2023/03/15 11:20:15;;;;;;;3.03;1.30;;;9.80;99.90;;;;;;5044706;28;20640;-76
2023/03/15 11:22:42;;;;;;;5.07;1.37;;;10.00;99.90;;;;;;5039295;28;20209;-75
2023/03/15 11:25:17;;;;;;;9.80;2.17;;;9.90;99.90;;;;;;5023669;28;20608;-75
2023/03/15 11:27:49;;;;;;;4.10;1.27;;;9.90;99.90;;;;;;5043703;28;20504;-75
2023/03/15 11:30:17;;;;;;;3.47;1.57;;;9.80;99.90;;;;;;5043345;28;20201;-76
2023/03/15 11:32:45;;;;;;;5.57;1.77;;;9.60;99.90;;;;;;5044826;28;20617;-75
2023/03/15 11:35:23;;;;;;;5.57;1.80;;;9.40;99.90;;;;;;5043486;28;20908;-74
2023/03/15 11:38:03;;;;;;;5.13;1.50;;;9.10;99.90;;;;;;5044851;28;20205;-75
2023/03/15 11:40:47;;;;;;;3.33;1.40;;;8.90;99.90;;;;;;5041650;28;20246;-75
2023/03/15 11:43:26;;;;;;;4.70;1.53;;;9.10;99.90;;;;;;5040596;28;20225;-74
2023/03/15 11:46:13;;;;;;;3.47;1.67;;;9.30;99.90;;;;;;5038606;28;20211;-73
2023/03/15 11:48:46;;;;;;;3.40;1.33;;;9.50;99.90;;;;;;5040524;28;20258;-75
2023/03/15 11:51:13;;;;;;;7.43;2.07;;;9.50;99.90;;;;;;5041063;28;20202;-76
2023/03/15 11:53:48;;;;;;;7.03;1.60;;;9.20;99.90;;;;;;5040848;28;20674;-75
2023/03/15 11:56:22;;;;;;;2.83;2.47;;;9.30;99.90;;;;;;5031746;28;20278;-74
2023/03/15 11:59:07;;;;;;;4.70;1.80;;;9.30;99.90;;;;;;5046443;28;20306;-76
2023/03/15 12:01:34;;;;;;;7.53;1.63;;;9.40;99.90;;;;;;5042037;28;20212;-75
2023/03/15 12:04:23;;;;;;;9.60;1.70;;;9.50;99.90;;;;;;5025717;28;20575;-75
2023/03/15 12:06:55;;;;;;;4.83;1.47;;;9.40;99.90;;;;;;5042331;28;20237;-76
2023/03/15 12:09:31;;;;;;;10.93;2.17;;;9.30;99.90;;;;;;5026449;28;20224;-75
2023/03/15 12:12:25;;;;;;;5.60;1.57;;;9.20;99.90;;;;;;5040606;28;20208;-76
2023/03/15 12:15:05;;;;;;;4.53;1.53;;;9.30;99.90;;;;;;5043021;28;20807;-76
2023/03/15 12:17:50;;;;;;;5.57;1.50;;;9.50;99.90;;;;;;5044922;28;20231;-76
2023/03/15 12:20:39;;;;;;;4.30;1.43;;;9.70;99.90;;;;;;5051418;28;20269;-76
2023/03/15 12:23:27;;;;;;;5.67;1.43;;;9.90;99.90;;;;;;5046413;28;20285;-75
2023/03/15 12:26:06;;;;;;;4.60;1.30;;;10.20;99.90;;;;;;5054851;28;20201;-75
2023/03/15 12:28:51;;;;;;;3.20;1.53;;;10.20;99.90;;;;;;5048415;28;20231;-75
2023/03/15 12:31:18;;;;;;;4.33;1.40;;;10.20;99.90;;;;;;5048585;28;20264;-75
2023/03/15 12:33:49;;;;;;;3.77;1.43;;;10.40;99.90;;;;;;5047797;28;20221;-75
2023/03/15 12:36:38;;;;;;;6.83;1.70;;;10.40;99.90;;;;;;5047233;28;20283;-76
2023/03/15 12:39:14;;;;;;;4.33;1.80;;;10.30;99.90;;;;;;5030817;28;20205;-76
2023/03/15 12:41:47;;;;;;;5.30;1.37;;;10.30;99.90;;;;;;5053780;28;20203;-76
2023/03/15 12:44:26;;;;;;;4.37;1.30;;;10.30;99.90;;;;;;5051863;28;20218;-76
2023/03/15 12:46:54;;;;;;;7.40;1.40;;;10.50;99.90;;;;;;5046565;28;20612;-78
2023/03/15 12:49:35;;;;;;;3.97;1.50;;;10.60;99.90;;;;;;5030195;28;20225;-74
2023/03/15 12:52:12;;;;;;;4.33;1.83;;;10.80;99.90;;;;;;5051108;28;20205;-74
2023/03/15 12:54:39;;;;;;;3.57;1.63;;;11.00;99.90;;;;;;5052868;28;20208;-76
2023/03/15 12:57:10;;;;;;;3.83;1.73;;;11.00;99.90;;;;;;5029263;28;20204;-76
2023/03/15 12:59:50;;;;;;;2.83;1.13;;;11.00;99.90;;;;;;5047139;28;20233;-76
2023/03/15 13:02:44;;;;;;;3.83;1.30;;;11.00;99.90;;;;;;5030341;28;20213;-75
2023/03/15 13:05:19;;;;;;;4.03;1.27;;;11.00;99.90;;;;;;5036619;28;20280;-75